Newtown, North Dakota
Current Conditions -  °F | °C
As of 4:35 AM on Sunday 26 Oct 2014 (Local Time) from K08D Reporting Station
NA  
Wind Chill: 42°   Ceiling: NA
Heat Index: 48°   Visibility: 10mi
Dew Point: 32°   Wind: 16mph
Humidity: 54%   Direction: 150°SSE
Pressure: 29.64"   Gusts: 22mph
Location:  47.9603°N, 102.491°W
Report Text: K08D 260935Z AUTO 15014G19KT 10SM 09/00 A2964 RMK AO2
Loading
Personal Weather Stations






























Interactive Weather Map
Tropical Storm Tracking
New forecast layout! Learn more

10-Day Weather Forecast

Advertisements
Track Severe Weather on mobile